sensor_id;sensor_type;location;lat;lon;timestamp;pressure;altitude;pressure_sealevel;temperature;humidity
25944;BME280;13742;49.306;8.636;2023-04-09T00:00:37;101267.30;;;10.14;63.79
25944;BME280;13742;49.306;8.636;2023-04-09T00:01:37;101271.20;;;10.15;63.67
25944;BME280;13742;49.306;8.636;2023-04-09T00:02:37;101273.56;;;10.15;63.79
25944;BME280;13742;49.306;8.636;2023-04-09T00:03:37;101269.34;;;10.14;64.21
25944;BME280;13742;49.306;8.636;2023-04-09T00:04:37;101271.70;;;10.14;64.13
25944;BME280;13742;49.306;8.636;2023-04-09T00:05:40;101268.14;;;10.13;64.25
25944;BME280;13742;49.306;8.636;2023-04-09T00:06:37;101269.59;;;10.12;64.27
25944;BME280;13742;49.306;8.636;2023-04-09T00:07:37;101268.45;;;10.11;64.19
25944;BME280;13742;49.306;8.636;2023-04-09T00:08:37;101268.19;;;10.10;64.47
25944;BME280;13742;49.306;8.636;2023-04-09T00:09:37;101266.13;;;10.10;64.30
25944;BME280;13742;49.306;8.636;2023-04-09T00:10:37;101268.38;;;10.12;64.34
25944;BME280;13742;49.306;8.636;2023-04-09T00:11:37;101265.48;;;10.12;64.15
25944;BME280;13742;49.306;8.636;2023-04-09T00:12:37;101263.84;;;10.14;64.31
25944;BME280;13742;49.306;8.636;2023-04-09T00:13:37;101261.59;;;10.14;64.15
25944;BME280;13742;49.306;8.636;2023-04-09T00:14:37;101261.13;;;10.15;64.12
25944;BME280;13742;49.306;8.636;2023-04-09T00:15:37;101259.47;;;10.13;64.07
25944;BME280;13742;49.306;8.636;2023-04-09T00:16:37;101255.66;;;10.13;64.20
25944;BME280;13742;49.306;8.636;2023-04-09T00:17:37;101260.36;;;10.12;64.13
25944;BME280;13742;49.306;8.636;2023-04-09T00:18:37;101262.66;;;10.01;64.45
25944;BME280;13742;49.306;8.636;2023-04-09T00:19:37;101259.31;;;10.06;64.37
25944;BME280;13742;49.306;8.636;2023-04-09T00:20:37;101256.05;;;10.08;64.27
25944;BME280;13742;49.306;8.636;2023-04-09T00:21:37;101257.11;;;10.08;64.36
25944;BME280;13742;49.306;8.636;2023-04-09T00:22:37;101258.05;;;10.10;64.33
25944;BME280;13742;49.306;8.636;2023-04-09T00:23:37;101255.98;;;10.10;64.35
25944;BME280;13742;49.306;8.636;2023-04-09T00:24:37;101255.08;;;10.10;64.35
25944;BME280;13742;49.306;8.636;2023-04-09T00:25:37;101258.26;;;10.09;64.18
25944;BME280;13742;49.306;8.636;2023-04-09T00:26:37;101254.23;;;10.09;64.35
25944;BME280;13742;49.306;8.636;2023-04-09T00:27:37;101253.88;;;10.07;64.16
25944;BME280;13742;49.306;8.636;2023-04-09T00:28:37;101251.09;;;10.06;64.21
25944;BME280;13742;49.306;8.636;2023-04-09T00:29:37;101250.77;;;10.06;64.21
25944;BME280;13742;49.306;8.636;2023-04-09T00:30:37;101252.97;;;10.07;64.29
25944;BME280;13742;49.306;8.636;2023-04-09T00:31:37;101252.96;;;10.06;64.32
25944;BME280;13742;49.306;8.636;2023-04-09T00:32:37;101251.28;;;10.05;64.25
25944;BME280;13742;49.306;8.636;2023-04-09T00:33:37;101249.66;;;10.06;64.37
25944;BME280;13742;49.306;8.636;2023-04-09T00:34:37;101251.23;;;10.07;64.31
25944;BME280;13742;49.306;8.636;2023-04-09T00:35:37;101248.47;;;10.05;64.26
25944;BME280;13742;49.306;8.636;2023-04-09T00:36:37;101249.94;;;10.06;64.31
25944;BME280;13742;49.306;8.636;2023-04-09T00:37:37;101248.33;;;10.05;64.40
25944;BME280;13742;49.306;8.636;2023-04-09T00:38:37;101245.44;;;10.05;64.37
25944;BME280;13742;49.306;8.636;2023-04-09T00:39:37;101247.83;;;10.05;64.58
25944;BME280;13742;49.306;8.636;2023-04-09T00:40:37;101248.15;;;10.01;64.40
25944;BME280;13742;49.306;8.636;2023-04-09T00:41:37;101247.60;;;10.02;64.69
25944;BME280;13742;49.306;8.636;2023-04-09T00:42:37;101248.75;;;10.03;64.68
25944;BME280;13742;49.306;8.636;2023-04-09T00:43:37;101245.79;;;10.04;64.54
25944;BME280;13742;49.306;8.636;2023-04-09T00:44:37;101246.88;;;10.05;64.51
25944;BME280;13742;49.306;8.636;2023-04-09T00:45:37;101240.53;;;10.06;64.66
25944;BME280;13742;49.306;8.636;2023-04-09T00:46:37;101245.63;;;10.07;64.59
25944;BME280;13742;49.306;8.636;2023-04-09T00:47:37;101245.48;;;10.08;64.85
25944;BME280;13742;49.306;8.636;2023-04-09T00:48:37;101244.30;;;10.06;64.79
25944;BME280;13742;49.306;8.636;2023-04-09T00:49:37;101246.56;;;10.07;64.81
25944;BME280;13742;49.306;8.636;2023-04-09T00:50:37;101246.80;;;10.06;64.81
25944;BME280;13742;49.306;8.636;2023-04-09T00:51:37;101243.48;;;10.07;64.78
25944;BME280;13742;49.306;8.636;2023-04-09T00:52:37;101245.03;;;10.03;64.66
25944;BME280;13742;49.306;8.636;2023-04-09T00:53:37;101245.59;;;10.04;64.81
25944;BME280;13742;49.306;8.636;2023-04-09T00:54:37;101244.53;;;10.05;64.88
25944;BME280;13742;49.306;8.636;2023-04-09T00:55:38;101245.88;;;10.03;64.60
25944;BME280;13742;49.306;8.636;2023-04-09T00:56:37;101250.34;;;10.03;64.82
25944;BME280;13742;49.306;8.636;2023-04-09T00:57:37;101252.36;;;10.04;64.96
25944;BME280;13742;49.306;8.636;2023-04-09T00:58:38;101249.89;;;10.04;65.10
25944;BME280;13742;49.306;8.636;2023-04-09T00:59:37;101247.72;;;10.04;65.09
25944;BME280;13742;49.306;8.636;2023-04-09T01:00:37;101246.78;;;10.04;65.07
25944;BME280;13742;49.306;8.636;2023-04-09T01:01:37;101251.73;;;10.04;65.11
25944;BME280;13742;49.306;8.636;2023-04-09T01:02:37;101250.20;;;10.04;65.04
25944;BME280;13742;49.306;8.636;2023-04-09T01:03:37;101249.97;;;10.04;65.19
25944;BME280;13742;49.306;8.636;2023-04-09T01:04:37;101249.80;;;10.04;65.31
25944;BME280;13742;49.306;8.636;2023-04-09T01:05:40;101254.78;;;10.06;65.24
25944;BME280;13742;49.306;8.636;2023-04-09T01:06:42;101252.09;;;10.06;65.08
25944;BME280;13742;49.306;8.636;2023-04-09T01:07:44;101252.84;;;10.07;65.01
25944;BME280;13742;49.306;8.636;2023-04-09T01:08:40;101250.55;;;10.06;65.28
25944;BME280;13742;49.306;8.636;2023-04-09T01:09:38;101251.08;;;10.07;65.25
25944;BME280;13742;49.306;8.636;2023-04-09T01:10:39;101247.28;;;10.07;65.17
25944;BME280;13742;49.306;8.636;2023-04-09T01:11:42;101245.91;;;10.07;65.32
25944;BME280;13742;49.306;8.636;2023-04-09T01:15:38;101247.01;;;10.02;65.35
25944;BME280;13742;49.306;8.636;2023-04-09T01:16:37;101246.61;;;10.02;65.14
25944;BME280;13742;49.306;8.636;2023-04-09T01:17:40;101246.81;;;10.00;65.26
25944;BME280;13742;49.306;8.636;2023-04-09T01:20:38;101246.42;;;9.94;65.68
25944;BME280;13742;49.306;8.636;2023-04-09T01:21:37;101249.89;;;9.94;65.96
25944;BME280;13742;49.306;8.636;2023-04-09T01:24:39;101247.93;;;9.93;65.76
25944;BME280;13742;49.306;8.636;2023-04-09T01:27:46;101239.05;;;9.94;65.74
25944;BME280;13742;49.306;8.636;2023-04-09T01:28:41;101238.78;;;9.91;65.76
25944;BME280;13742;49.306;8.636;2023-04-09T01:29:38;101240.86;;;9.92;65.79
25944;BME280;13742;49.306;8.636;2023-04-09T01:30:37;101242.14;;;9.94;65.75
25944;BME280;13742;49.306;8.636;2023-04-09T01:31:38;101240.45;;;9.93;65.74
25944;BME280;13742;49.306;8.636;2023-04-09T01:32:37;101242.68;;;9.94;65.90
25944;BME280;13742;49.306;8.636;2023-04-09T01:33:37;101244.47;;;9.93;65.99
25944;BME280;13742;49.306;8.636;2023-04-09T01:34:37;101247.14;;;9.94;66.14
25944;BME280;13742;49.306;8.636;2023-04-09T01:35:37;101249.25;;;9.93;65.84
25944;BME280;13742;49.306;8.636;2023-04-09T01:36:37;101243.78;;;9.94;65.88
25944;BME280;13742;49.306;8.636;2023-04-09T01:37:37;101246.82;;;9.94;65.82
25944;BME280;13742;49.306;8.636;2023-04-09T01:38:40;101247.82;;;9.96;65.91
25944;BME280;13742;49.306;8.636;2023-04-09T01:39:37;101246.83;;;9.96;65.95
25944;BME280;13742;49.306;8.636;2023-04-09T01:40:37;101249.95;;;9.96;65.82
25944;BME280;13742;49.306;8.636;2023-04-09T01:41:37;101248.22;;;9.96;66.04
25944;BME280;13742;49.306;8.636;2023-04-09T01:42:37;101250.17;;;9.97;65.92
25944;BME280;13742;49.306;8.636;2023-04-09T01:43:37;101247.66;;;9.97;65.78
25944;BME280;13742;49.306;8.636;2023-04-09T01:44:38;101248.19;;;9.94;65.90
25944;BME280;13742;49.306;8.636;2023-04-09T01:45:37;101249.05;;;9.96;66.12
25944;BME280;13742;49.306;8.636;2023-04-09T01:46:38;101246.88;;;9.97;65.94
25944;BME280;13742;49.306;8.636;2023-04-09T01:47:37;101246.78;;;9.96;65.81
25944;BME280;13742;49.306;8.636;2023-04-09T01:48:37;101244.66;;;9.95;66.04
25944;BME280;13742;49.306;8.636;2023-04-09T01:49:37;101242.00;;;9.96;66.10
25944;BME280;13742;49.306;8.636;2023-04-09T01:50:37;101246.42;;;9.95;66.18
25944;BME280;13742;49.306;8.636;2023-04-09T01:51:37;101245.98;;;9.94;66.22
25944;BME280;13742;49.306;8.636;2023-04-09T01:52:37;101244.40;;;9.94;66.27
25944;BME280;13742;49.306;8.636;2023-04-09T01:53:37;101248.48;;;9.93;66.22
25944;BME280;13742;49.306;8.636;2023-04-09T01:54:37;101246.19;;;9.92;66.10
25944;BME280;13742;49.306;8.636;2023-04-09T01:55:37;101247.45;;;9.92;66.20
25944;BME280;13742;49.306;8.636;2023-04-09T01:57:37;101246.90;;;9.92;66.35
25944;BME280;13742;49.306;8.636;2023-04-09T01:58:37;101245.72;;;9.93;66.39
25944;BME280;13742;49.306;8.636;2023-04-09T01:59:37;101245.48;;;9.92;66.15
25944;BME280;13742;49.306;8.636;2023-04-09T02:00:38;101244.90;;;9.93;66.40
25944;BME280;13742;49.306;8.636;2023-04-09T02:02:41;101241.44;;;9.93;66.17
25944;BME280;13742;49.306;8.636;2023-04-09T02:03:43;101246.80;;;9.92;66.47
25944;BME280;13742;49.306;8.636;2023-04-09T02:04:42;101247.84;;;9.92;66.21
25944;BME280;13742;49.306;8.636;2023-04-09T02:05:37;101244.30;;;9.90;66.56
25944;BME280;13742;49.306;8.636;2023-04-09T02:06:57;101245.73;;;9.89;66.24
25944;BME280;13742;49.306;8.636;2023-04-09T02:07:37;101248.49;;;9.89;66.26
25944;BME280;13742;49.306;8.636;2023-04-09T02:08:37;101248.23;;;9.88;66.25
25944;BME280;13742;49.306;8.636;2023-04-09T02:09:38;101249.05;;;9.88;66.42
25944;BME280;13742;49.306;8.636;2023-04-09T02:10:37;101244.81;;;9.88;66.50
25944;BME280;13742;49.306;8.636;2023-04-09T02:11:37;101246.47;;;9.88;66.24
25944;BME280;13742;49.306;8.636;2023-04-09T02:12:37;101247.74;;;9.87;66.20
25944;BME280;13742;49.306;8.636;2023-04-09T02:13:37;101247.59;;;9.86;66.45
25944;BME280;13742;49.306;8.636;2023-04-09T02:14:37;101249.41;;;9.88;66.45
25944;BME280;13742;49.306;8.636;2023-04-09T02:15:37;101250.70;;;9.86;66.35
25944;BME280;13742;49.306;8.636;2023-04-09T02:16:37;101250.80;;;9.87;66.43
25944;BME280;13742;49.306;8.636;2023-04-09T02:17:37;101251.34;;;9.85;66.54
25944;BME280;13742;49.306;8.636;2023-04-09T02:18:37;101249.48;;;9.85;66.54
25944;BME280;13742;49.306;8.636;2023-04-09T02:19:41;101250.35;;;9.85;66.67
25944;BME280;13742;49.306;8.636;2023-04-09T02:20:37;101252.14;;;9.84;66.70
25944;BME280;13742;49.306;8.636;2023-04-09T02:21:37;101249.71;;;9.84;66.38
25944;BME280;13742;49.306;8.636;2023-04-09T02:22:37;101247.45;;;9.84;66.29
25944;BME280;13742;49.306;8.636;2023-04-09T02:23:37;101249.47;;;9.82;66.48
25944;BME280;13742;49.306;8.636;2023-04-09T02:24:37;101249.42;;;9.83;66.55
25944;BME280;13742;49.306;8.636;2023-04-09T02:25:37;101248.66;;;9.81;66.72
25944;BME280;13742;49.306;8.636;2023-04-09T02:26:37;101250.73;;;9.82;66.62
25944;BME280;13742;49.306;8.636;2023-04-09T02:27:37;101249.33;;;9.82;66.83
25944;BME280;13742;49.306;8.636;2023-04-09T02:28:37;101248.81;;;9.81;66.75
25944;BME280;13742;49.306;8.636;2023-04-09T02:29:38;101249.06;;;9.81;66.63
25944;BME280;13742;49.306;8.636;2023-04-09T02:30:37;101250.39;;;9.81;66.78
25944;BME280;13742;49.306;8.636;2023-04-09T02:31:37;101246.84;;;9.79;66.59
25944;BME280;13742;49.306;8.636;2023-04-09T02:32:37;101247.23;;;9.79;66.80
25944;BME280;13742;49.306;8.636;2023-04-09T02:33:37;101245.48;;;9.78;66.70
25944;BME280;13742;49.306;8.636;2023-04-09T02:34:37;101245.30;;;9.78;66.74
25944;BME280;13742;49.306;8.636;2023-04-09T02:35:37;101242.83;;;9.78;66.89
25944;BME280;13742;49.306;8.636;2023-04-09T02:36:37;101242.63;;;9.78;66.84
25944;BME280;13742;49.306;8.636;2023-04-09T02:37:37;101242.56;;;9.77;66.56
25944;BME280;13742;49.306;8.636;2023-04-09T02:38:39;101245.78;;;9.76;66.67
25944;BME280;13742;49.306;8.636;2023-04-09T02:39:37;101244.25;;;9.74;66.69
25944;BME280;13742;49.306;8.636;2023-04-09T02:40:37;101241.00;;;9.74;66.83
25944;BME280;13742;49.306;8.636;2023-04-09T02:41:37;101241.21;;;9.73;66.75
25944;BME280;13742;49.306;8.636;2023-04-09T02:42:37;101241.52;;;9.71;66.67
25944;BME280;13742;49.306;8.636;2023-04-09T02:43:37;101239.20;;;9.68;66.86
25944;BME280;13742;49.306;8.636;2023-04-09T02:44:37;101241.16;;;9.69;66.80
25944;BME280;13742;49.306;8.636;2023-04-09T02:45:37;101243.16;;;9.68;67.04
25944;BME280;13742;49.306;8.636;2023-04-09T02:46:37;101239.71;;;9.67;66.86
25944;BME280;13742;49.306;8.636;2023-04-09T02:47:37;101242.96;;;9.66;67.14
25944;BME280;13742;49.306;8.636;2023-04-09T02:48:37;101243.01;;;9.67;67.04
25944;BME280;13742;49.306;8.636;2023-04-09T02:49:37;101243.02;;;9.66;67.24
25944;BME280;13742;49.306;8.636;2023-04-09T02:50:37;101242.09;;;9.66;67.17
25944;BME280;13742;49.306;8.636;2023-04-09T02:51:37;101242.14;;;9.66;67.46
25944;BME280;13742;49.306;8.636;2023-04-09T02:52:37;101238.94;;;9.67;67.37
25944;BME280;13742;49.306;8.636;2023-04-09T02:53:38;101241.59;;;9.66;67.42
25944;BME280;13742;49.306;8.636;2023-04-09T02:54:37;101240.48;;;9.66;67.56
25944;BME280;13742;49.306;8.636;2023-04-09T02:55:37;101241.51;;;9.66;67.59
25944;BME280;13742;49.306;8.636;2023-04-09T02:56:37;101246.26;;;9.66;67.57
25944;BME280;13742;49.306;8.636;2023-04-09T02:57:37;101246.18;;;9.64;67.32
25944;BME280;13742;49.306;8.636;2023-04-09T02:58:37;101246.52;;;9.63;67.50
25944;BME280;13742;49.306;8.636;2023-04-09T02:59:38;101245.67;;;9.61;67.28
25944;BME280;13742;49.306;8.636;2023-04-09T03:00:37;101248.30;;;9.61;67.22
25944;BME280;13742;49.306;8.636;2023-04-09T03:01:37;101245.09;;;9.60;67.11
25944;BME280;13742;49.306;8.636;2023-04-09T03:02:37;101245.33;;;9.61;67.50
25944;BME280;13742;49.306;8.636;2023-04-09T03:03:39;101245.56;;;9.60;67.38
25944;BME280;13742;49.306;8.636;2023-04-09T03:04:37;101247.97;;;9.61;67.64
25944;BME280;13742;49.306;8.636;2023-04-09T03:05:37;101240.63;;;9.60;67.45
25944;BME280;13742;49.306;8.636;2023-04-09T03:06:37;101247.70;;;9.61;67.63
25944;BME280;13742;49.306;8.636;2023-04-09T03:07:37;101244.48;;;9.60;67.45
25944;BME280;13742;49.306;8.636;2023-04-09T03:08:37;101245.20;;;9.59;67.66
25944;BME280;13742;49.306;8.636;2023-04-09T03:09:37;101240.26;;;9.59;67.52
25944;BME280;13742;49.306;8.636;2023-04-09T03:10:37;101242.17;;;9.60;67.64
25944;BME280;13742;49.306;8.636;2023-04-09T03:11:37;101240.14;;;9.60;67.61
25944;BME280;13742;49.306;8.636;2023-04-09T03:12:37;101243.52;;;9.61;67.56
25944;BME280;13742;49.306;8.636;2023-04-09T03:13:37;101244.08;;;9.61;67.85
25944;BME280;13742;49.306;8.636;2023-04-09T03:14:37;101242.82;;;9.57;67.47
25944;BME280;13742;49.306;8.636;2023-04-09T03:15:37;101239.75;;;9.56;67.72
25944;BME280;13742;49.306;8.636;2023-04-09T03:16:37;101244.23;;;9.51;67.92
25944;BME280;13742;49.306;8.636;2023-04-09T03:17:37;101243.09;;;9.49;68.00
25944;BME280;13742;49.306;8.636;2023-04-09T03:18:37;101242.00;;;9.42;68.29
25944;BME280;13742;49.306;8.636;2023-04-09T03:19:37;101241.11;;;9.46;68.29
25944;BME280;13742;49.306;8.636;2023-04-09T03:20:37;101241.14;;;9.46;68.41
25944;BME280;13742;49.306;8.636;2023-04-09T03:21:37;101238.69;;;9.41;68.31
25944;BME280;13742;49.306;8.636;2023-04-09T03:22:37;101238.31;;;9.44;68.09
25944;BME280;13742;49.306;8.636;2023-04-09T03:23:37;101237.34;;;9.45;68.42
25944;BME280;13742;49.306;8.636;2023-04-09T03:24:37;101238.73;;;9.47;68.20
25944;BME280;13742;49.306;8.636;2023-04-09T03:25:37;101237.77;;;9.38;68.55
25944;BME280;13742;49.306;8.636;2023-04-09T03:26:37;101233.88;;;9.41;68.61
25944;BME280;13742;49.306;8.636;2023-04-09T03:27:37;101236.63;;;9.44;68.49
25944;BME280;13742;49.306;8.636;2023-04-09T03:28:37;101235.27;;;9.44;68.26
25944;BME280;13742;49.306;8.636;2023-04-09T03:29:37;101233.03;;;9.42;68.63
25944;BME280;13742;49.306;8.636;2023-04-09T03:30:37;101239.85;;;9.34;68.64
25944;BME280;13742;49.306;8.636;2023-04-09T03:31:37;101236.84;;;9.37;68.51
25944;BME280;13742;49.306;8.636;2023-04-09T03:32:37;101238.30;;;9.34;68.55
25944;BME280;13742;49.306;8.636;2023-04-09T03:33:37;101236.44;;;9.34;68.56
25944;BME280;13742;49.306;8.636;2023-04-09T03:34:37;101235.77;;;9.35;68.31
25944;BME280;13742;49.306;8.636;2023-04-09T03:35:37;101238.98;;;9.36;68.61
25944;BME280;13742;49.306;8.636;2023-04-09T03:36:37;101236.58;;;9.36;68.56
25944;BME280;13742;49.306;8.636;2023-04-09T03:37:37;101238.48;;;9.38;68.62
25944;BME280;13742;49.306;8.636;2023-04-09T03:38:37;101239.94;;;9.39;68.50
25944;BME280;13742;49.306;8.636;2023-04-09T03:39:37;101238.91;;;9.39;69.10
25944;BME280;13742;49.306;8.636;2023-04-09T03:40:37;101237.59;;;9.39;68.91
25944;BME280;13742;49.306;8.636;2023-04-09T03:41:37;101238.88;;;9.40;68.85
25944;BME280;13742;49.306;8.636;2023-04-09T03:42:37;101235.82;;;9.39;68.53
25944;BME280;13742;49.306;8.636;2023-04-09T03:43:37;101233.41;;;9.39;68.75
25944;BME280;13742;49.306;8.636;2023-04-09T03:44:37;101235.42;;;9.40;68.91
25944;BME280;13742;49.306;8.636;2023-04-09T03:45:37;101236.41;;;9.40;69.03
25944;BME280;13742;49.306;8.636;2023-04-09T03:46:37;101232.45;;;9.40;68.99
25944;BME280;13742;49.306;8.636;2023-04-09T03:47:37;101234.91;;;9.41;68.79
25944;BME280;13742;49.306;8.636;2023-04-09T03:48:37;101235.52;;;9.41;68.94
25944;BME280;13742;49.306;8.636;2023-04-09T03:49:37;101232.73;;;9.40;68.65
25944;BME280;13742;49.306;8.636;2023-04-09T03:50:38;101232.76;;;9.39;68.45
25944;BME280;13742;49.306;8.636;2023-04-09T03:51:37;101233.34;;;9.31;69.00
25944;BME280;13742;49.306;8.636;2023-04-09T03:52:37;101234.73;;;9.34;68.73
25944;BME280;13742;49.306;8.636;2023-04-09T03:53:37;101232.17;;;9.33;68.96
25944;BME280;13742;49.306;8.636;2023-04-09T03:54:37;101234.14;;;9.29;69.35
25944;BME280;13742;49.306;8.636;2023-04-09T03:55:37;101237.13;;;9.28;69.20
25944;BME280;13742;49.306;8.636;2023-04-09T03:56:37;101236.00;;;9.30;69.10
25944;BME280;13742;49.306;8.636;2023-04-09T03:57:37;101239.91;;;9.31;69.35
25944;BME280;13742;49.306;8.636;2023-04-09T03:58:37;101238.75;;;9.29;69.42
25944;BME280;13742;49.306;8.636;2023-04-09T03:59:37;101241.13;;;9.30;69.35
25944;BME280;13742;49.306;8.636;2023-04-09T04:00:37;101239.19;;;9.30;69.42
25944;BME280;13742;49.306;8.636;2023-04-09T04:01:37;101240.80;;;9.30;69.02
25944;BME280;13742;49.306;8.636;2023-04-09T04:02:37;101237.78;;;9.28;68.93
25944;BME280;13742;49.306;8.636;2023-04-09T04:03:37;101236.28;;;9.29;69.05
25944;BME280;13742;49.306;8.636;2023-04-09T04:04:37;101237.59;;;9.31;69.41
25944;BME280;13742;49.306;8.636;2023-04-09T04:05:37;101235.84;;;9.29;69.17
25944;BME280;13742;49.306;8.636;2023-04-09T04:06:37;101234.44;;;9.29;69.22
25944;BME280;13742;49.306;8.636;2023-04-09T04:07:37;101231.26;;;9.27;69.32
25944;BME280;13742;49.306;8.636;2023-04-09T04:08:37;101237.90;;;9.29;69.32
25944;BME280;13742;49.306;8.636;2023-04-09T04:09:37;101236.98;;;9.30;69.43
25944;BME280;13742;49.306;8.636;2023-04-09T04:10:37;101233.30;;;9.31;69.49
25944;BME280;13742;49.306;8.636;2023-04-09T04:11:37;101236.38;;;9.32;69.14
25944;BME280;13742;49.306;8.636;2023-04-09T04:12:37;101233.53;;;9.29;69.07
25944;BME280;13742;49.306;8.636;2023-04-09T04:13:37;101236.75;;;9.27;69.08
25944;BME280;13742;49.306;8.636;2023-04-09T04:14:37;101239.34;;;9.26;69.47
25944;BME280;13742;49.306;8.636;2023-04-09T04:15:39;101232.13;;;9.27;69.52
25944;BME280;13742;49.306;8.636;2023-04-09T04:16:38;101231.25;;;9.25;69.64
25944;BME280;13742;49.306;8.636;2023-04-09T04:17:37;101234.38;;;9.23;69.34
25944;BME280;13742;49.306;8.636;2023-04-09T04:18:37;101235.65;;;9.23;69.34
25944;BME280;13742;49.306;8.636;2023-04-09T04:19:37;101236.59;;;9.24;69.25
25944;BME280;13742;49.306;8.636;2023-04-09T04:20:37;101234.88;;;9.23;69.29
25944;BME280;13742;49.306;8.636;2023-04-09T04:21:37;101233.61;;;9.19;69.51
25944;BME280;13742;49.306;8.636;2023-04-09T04:22:37;101232.77;;;9.12;69.87
25944;BME280;13742;49.306;8.636;2023-04-09T04:23:37;101234.59;;;9.13;69.89
25944;BME280;13742;49.306;8.636;2023-04-09T04:24:37;101238.98;;;9.15;69.84
25944;BME280;13742;49.306;8.636;2023-04-09T04:25:39;101239.77;;;9.15;69.53
25944;BME280;13742;49.306;8.636;2023-04-09T04:26:38;101235.82;;;9.15;69.46
25944;BME280;13742;49.306;8.636;2023-04-09T04:27:40;101238.41;;;9.15;70.10
25944;BME280;13742;49.306;8.636;2023-04-09T04:28:37;101235.91;;;9.17;69.88
25944;BME280;13742;49.306;8.636;2023-04-09T04:29:37;101235.94;;;9.15;69.79
25944;BME280;13742;49.306;8.636;2023-04-09T04:30:37;101236.19;;;9.15;70.05
25944;BME280;13742;49.306;8.636;2023-04-09T04:31:37;101234.86;;;9.15;69.74
25944;BME280;13742;49.306;8.636;2023-04-09T04:32:37;101236.00;;;9.14;69.79
25944;BME280;13742;49.306;8.636;2023-04-09T04:33:37;101233.59;;;9.12;70.08
25944;BME280;13742;49.306;8.636;2023-04-09T04:34:37;101234.41;;;9.12;69.98
25944;BME280;13742;49.306;8.636;2023-04-09T04:35:37;101235.43;;;9.11;70.08
25944;BME280;13742;49.306;8.636;2023-04-09T04:36:37;101236.37;;;9.11;69.78
25944;BME280;13742;49.306;8.636;2023-04-09T04:37:37;101238.56;;;9.06;70.26
25944;BME280;13742;49.306;8.636;2023-04-09T04:38:37;101235.44;;;9.06;70.12
25944;BME280;13742;49.306;8.636;2023-04-09T04:39:37;101238.23;;;9.06;69.80
25944;BME280;13742;49.306;8.636;2023-04-09T04:40:37;101239.37;;;9.07;70.13
25944;BME280;13742;49.306;8.636;2023-04-09T04:41:37;101243.23;;;9.08;69.88
25944;BME280;13742;49.306;8.636;2023-04-09T04:42:37;101242.88;;;9.08;70.00
25944;BME280;13742;49.306;8.636;2023-04-09T04:43:37;101245.05;;;9.06;70.07
25944;BME280;13742;49.306;8.636;2023-04-09T04:44:37;101241.88;;;9.05;70.68
25944;BME280;13742;49.306;8.636;2023-04-09T04:45:37;101245.88;;;9.05;70.23
25944;BME280;13742;49.306;8.636;2023-04-09T04:46:37;101245.30;;;9.02;70.25
25944;BME280;13742;49.306;8.636;2023-04-09T04:47:40;101244.94;;;9.01;70.34
25944;BME280;13742;49.306;8.636;2023-04-09T04:48:37;101244.52;;;9.00;70.39
25944;BME280;13742;49.306;8.636;2023-04-09T04:49:37;101243.67;;;9.01;70.11
25944;BME280;13742;49.306;8.636;2023-04-09T04:50:37;101248.83;;;9.01;70.61
25944;BME280;13742;49.306;8.636;2023-04-09T04:51:37;101248.02;;;9.00;70.42
25944;BME280;13742;49.306;8.636;2023-04-09T04:52:39;101243.77;;;8.97;70.26
25944;BME280;13742;49.306;8.636;2023-04-09T04:53:37;101248.25;;;8.95;70.61
25944;BME280;13742;49.306;8.636;2023-04-09T04:54:37;101248.20;;;8.96;70.39
25944;BME280;13742;49.306;8.636;2023-04-09T04:55:38;101248.99;;;8.97;70.75
25944;BME280;13742;49.306;8.636;2023-04-09T04:56:37;101255.83;;;8.99;70.85
25944;BME280;13742;49.306;8.636;2023-04-09T04:57:37;101251.92;;;9.00;70.84
25944;BME280;13742;49.306;8.636;2023-04-09T04:58:37;101253.54;;;9.00;70.53
25944;BME280;13742;49.306;8.636;2023-04-09T04:59:38;101252.80;;;9.00;70.68
25944;BME280;13742;49.306;8.636;2023-04-09T05:00:37;101250.72;;;9.00;70.41
25944;BME280;13742;49.306;8.636;2023-04-09T05:01:37;101248.45;;;9.01;70.35
25944;BME280;13742;49.306;8.636;2023-04-09T05:02:37;101252.61;;;8.97;70.58
25944;BME280;13742;49.306;8.636;2023-04-09T05:03:37;101252.34;;;8.97;70.66
25944;BME280;13742;49.306;8.636;2023-04-09T05:04:37;101256.02;;;8.97;70.44
25944;BME280;13742;49.306;8.636;2023-04-09T05:05:37;101254.75;;;8.94;70.79
25944;BME280;13742;49.306;8.636;2023-04-09T05:06:37;101254.88;;;8.92;70.88
25944;BME280;13742;49.306;8.636;2023-04-09T05:07:37;101256.93;;;8.89;70.79
25944;BME280;13742;49.306;8.636;2023-04-09T05:08:37;101258.61;;;8.91;70.95
25944;BME280;13742;49.306;8.636;2023-04-09T05:09:37;101256.48;;;8.90;70.86
25944;BME280;13742;49.306;8.636;2023-04-09T05:10:39;101257.94;;;8.90;70.89
25944;BME280;13742;49.306;8.636;2023-04-09T05:11:37;101256.93;;;8.89;70.94
25944;BME280;13742;49.306;8.636;2023-04-09T05:12:37;101254.33;;;8.88;70.78
25944;BME280;13742;49.306;8.636;2023-04-09T05:13:37;101255.33;;;8.87;70.64
25944;BME280;13742;49.306;8.636;2023-04-09T05:14:37;101255.92;;;8.87;71.16
25944;BME280;13742;49.306;8.636;2023-04-09T05:15:37;101253.78;;;8.87;70.93
25944;BME280;13742;49.306;8.636;2023-04-09T05:16:37;101254.69;;;8.85;70.66
25944;BME280;13742;49.306;8.636;2023-04-09T05:17:37;101255.13;;;8.85;70.68
25944;BME280;13742;49.306;8.636;2023-04-09T05:18:37;101255.39;;;8.85;71.05
25944;BME280;13742;49.306;8.636;2023-04-09T05:19:37;101254.80;;;8.85;71.37
25944;BME280;13742;49.306;8.636;2023-04-09T05:20:37;101251.72;;;8.85;71.06
25944;BME280;13742;49.306;8.636;2023-04-09T05:21:37;101252.65;;;8.86;70.85
25944;BME280;13742;49.306;8.636;2023-04-09T05:22:37;101259.20;;;8.87;71.05
25944;BME280;13742;49.306;8.636;2023-04-09T05:23:37;101252.78;;;8.84;71.39
25944;BME280;13742;49.306;8.636;2023-04-09T05:24:37;101258.23;;;8.87;71.06
25944;BME280;13742;49.306;8.636;2023-04-09T05:25:37;101257.47;;;8.86;71.09
25944;BME280;13742;49.306;8.636;2023-04-09T05:26:37;101257.34;;;8.84;71.04
25944;BME280;13742;49.306;8.636;2023-04-09T05:27:37;101257.42;;;8.82;71.28